Airfield :
LOGIN :

Register | Disclaimer

   EN    FR    IT 

 










Legend :    VFR   Marginal VFR   IFR   Intensive IFR   Very Intensive IFR
Visi :
Ceiling :
>= 8 km
>= 3000ft
5 to 8 km
1000 to 3000 ft
1500m to 5 km
500 to 1000 ft
800 to 1500m
200 to 500 ft
< 800m
< 200 ft
Symbols :   Thunderstorms  Fog  Heavy snow  Heavy precipitations  Wind > 20 kt
SIGMETs :     Misc.  Thunderstorms  Icing  Turbulence  Mountain Waves  Volcanic Ashes







- Airport Elevation : 1247 ft
- IATA code : PRG


LKPR - Praha Ruzyne

CURRENT METAR :
  • 181530Z 24026KT 9999 FEW013TCU SCT016 05/02 Q0992 R24/29//95 R30/29//95 NOSIG

EXPIRED METARs :
  • 181523Z 24028KT 5000 -SHRA FEW013TCU BKN015 04/02 Q0992 R24/29//95 R30/29//95 RMK REG QNH 0987
  • 181518Z 24027KT 3100 SHRA FEW015TCU BKN018 05/02 Q0992 R24/29//95 R30/29//95 RMK REG QNH 0987
  • 181506Z 23032G42KT 9000 -SHRA SCT012 SCT023 BKN035 05/02 Q0992 R24/29//95 R30/29//95 RMK REG QNH 0987
  • 181441Z 23031G41KT 9999 -RA SCT025 SCT035 05/02 Q0991 R24/29//95 R30/490294 RMK REG QNH 0986
  • 181430Z 23028G38KT 180V250 9999 SCT023 SCT036 BKN048 05/01 Q0991 R24/29//95 R30/490294 TEMPO 24028G42KT
  • 181408Z 23023G34KT 9999 SCT018 BKN022 BKN032 05/02 Q0992 R24/29//95 R30/490294 RMK REG QNH 0986
  • 181400Z 22020G30KT 9999 -RA BKN018 BKN026 04/02 Q0992 R24/29//95 R30/490294 NOSIG
  • 181333Z 22018G28KT 9999 -RA BKN017 BKN026 04/01 Q0992 R24/29//95 R30/490294 RMK REG QNH 0986
  • 181300Z 20016G26KT 9999 -RA BKN016 BKN023 04/01 Q0993 R24/29//95 R30/490294 NOSIG

TAF TAF LKPR
Valid from the 18 at 12:00 until the 19 at 18:00 UTC


181100Z 1812/1918 20020KT 9999 BKN020
TEMPO 1812/1900 27025G40KT
PROB40
TEMPO 1813/1821 27030G45KT
TEMPO 1812/1818 3000 SNRA FEW004CB BKN007
PROB30
TEMPO 1812/1815 0500 SN BKN003
BECMG 1900/1902 27016KT
TEMPO 1902/1918 27016G26KT 6000 SHSNRA BKN013
No reported NOTAMs for that airfield.
2 SIGMETs reported for the Praha FIR (LKAA) :
 
Severe turbulence
LKAA SIGMET 4 VALID 181300/181700 LKPW
LKAA PRAHA FIR SEV TURB FCST WI N5100 E01859 - N4824 E01848 - N4826 E01211 - N5100 E01203 - N5100 E01859 SFC/FL070 STNR WKN=
Severe icing
LKAA SIGMET 3 VALID 181300/181700 LKPW
LKAA PRAHA FIR SEV ICE FCST E OF LINE N4839 E01615 - N5106 E01510 3500FT/FL130 MOV E WKN=



MET'MAP, your aeronautical weather chart ! - Copyright ORBIFLY December 2007 - Disclaimer

ORBIFLY MET'MAP TEAM :

Programming & Development : Alexandra Zaïnal
Concept & Development : Baudouin d'Aumeries
Co-Development & Prog : Marc-Olivier Méhu
Technical & hardware support : Manuel Goepfert

Contact : metmap@orbifly.com




SOURCES & CREDITS :

   NOAA